createdAt,value
2022-08-14T00:01:03.104Z,20.07
2022-08-14T00:03:37.236Z,20.04
2022-08-14T00:06:25.743Z,20.01
2022-08-14T00:08:51.018Z,19.97
2022-08-14T00:11:17.446Z,19.94
2022-08-14T00:13:43.995Z,19.90
2022-08-14T00:16:41.470Z,19.88
2022-08-14T00:19:19.653Z,19.82
2022-08-14T00:21:50.154Z,19.80
2022-08-14T00:24:28.120Z,19.74
2022-08-14T00:27:02.325Z,19.73
2022-08-14T00:29:33.213Z,19.70
2022-08-14T00:32:56.001Z,19.64
2022-08-14T00:34:54.369Z,19.57
2022-08-14T00:37:23.047Z,19.51
2022-08-14T00:39:50.965Z,19.45
2022-08-14T00:42:21.416Z,19.41
2022-08-14T00:45:09.062Z,19.36
2022-08-14T00:47:44.724Z,19.27
2022-08-14T00:50:17.898Z,19.23
2022-08-14T00:52:50.906Z,19.18
2022-08-14T00:55:19.812Z,19.16
2022-08-14T00:58:07.271Z,19.13
2022-08-14T01:00:42.791Z,19.10
2022-08-14T01:03:17.011Z,19.08
2022-08-14T01:05:51.753Z,19.03
2022-08-14T01:08:52.422Z,19.03
2022-08-14T01:11:08.425Z,19.03
2022-08-14T01:13:43.103Z,19.06
2022-08-14T01:16:14.000Z,19.08
2022-08-14T01:19:02.215Z,19.12
2022-08-14T01:21:34.804Z,19.18
2022-08-14T01:24:07.504Z,19.19
2022-08-14T01:26:39.074Z,19.23
2022-08-14T01:29:06.283Z,19.29
2022-08-14T01:31:38.774Z,19.30
2022-08-14T01:35:19.828Z,19.32
2022-08-14T01:36:54.064Z,19.34
2022-08-14T01:39:21.571Z,19.36
2022-08-14T01:41:55.647Z,19.37
2022-08-14T01:44:32.773Z,19.40
2022-08-14T01:47:12.161Z,19.43
2022-08-14T01:49:59.067Z,19.46
2022-08-14T01:52:34.165Z,19.49
2022-08-14T01:55:15.308Z,19.50
2022-08-14T01:57:49.650Z,19.53
2022-08-14T02:00:29.257Z,19.54
2022-08-14T02:02:58.266Z,19.56
2022-08-14T02:05:34.943Z,19.56
2022-08-14T02:08:09.126Z,19.57
2022-08-14T02:10:40.482Z,19.57
2022-08-14T02:13:15.893Z,19.60
2022-08-14T02:15:43.569Z,19.60
2022-08-14T02:18:10.604Z,19.61
2022-08-14T02:20:38.491Z,19.60
2022-08-14T02:23:08.328Z,19.63
2022-08-14T02:25:35.562Z,19.60
2022-08-14T02:28:23.734Z,19.60
2022-08-14T02:30:48.647Z,19.60
2022-08-14T02:33:19.522Z,19.63
2022-08-14T02:35:52.799Z,19.60
2022-08-14T02:38:30.071Z,19.61
2022-08-14T02:41:01.057Z,19.60
2022-08-14T02:43:37.313Z,19.61
2022-08-14T02:46:13.682Z,19.59
2022-08-14T02:49:01.469Z,19.57
2022-08-14T02:51:31.487Z,19.59
2022-08-14T02:54:01.705Z,19.57
2022-08-14T02:57:16.578Z,19.57
2022-08-14T02:59:17.140Z,19.56
2022-08-14T03:01:51.014Z,19.54
2022-08-14T03:04:21.146Z,19.56
2022-08-14T03:07:06.599Z,19.53
2022-08-14T03:10:26.251Z,19.51
2022-08-14T03:12:31.014Z,19.51
2022-08-14T03:14:59.807Z,19.49
2022-08-14T03:17:26.874Z,19.46
2022-08-14T03:19:58.557Z,19.47
2022-08-14T03:22:25.326Z,19.45
2022-08-14T03:24:54.297Z,19.46
2022-08-14T03:27:21.735Z,19.47
2022-08-14T03:29:53.078Z,19.50
2022-08-14T03:32:20.304Z,19.47
2022-08-14T03:34:58.561Z,19.49
2022-08-14T03:37:37.769Z,19.50
2022-08-14T03:40:18.309Z,19.49
2022-08-14T03:42:45.677Z,19.49
2022-08-14T03:45:25.439Z,19.49
2022-08-14T03:48:02.180Z,19.50
2022-08-14T03:50:31.346Z,19.50
2022-08-14T03:53:03.042Z,19.53
2022-08-14T03:55:30.755Z,19.51
2022-08-14T03:57:58.152Z,19.53
2022-08-14T04:00:43.820Z,19.51
2022-08-14T04:03:16.733Z,19.50
2022-08-14T04:05:48.999Z,19.51
2022-08-14T04:08:29.884Z,19.49
2022-08-14T04:10:58.089Z,19.50
2022-08-14T04:13:28.042Z,19.50
2022-08-14T04:16:02.038Z,19.50
2022-08-14T04:18:33.727Z,19.49
2022-08-14T04:21:01.173Z,19.50
2022-08-14T04:23:32.935Z,19.51
2022-08-14T04:26:14.209Z,19.53
2022-08-14T04:28:58.794Z,19.53
2022-08-14T04:32:57.527Z,19.51
2022-08-14T04:34:20.873Z,19.54
2022-08-14T04:37:12.458Z,19.56
2022-08-14T04:39:58.062Z,19.54
2022-08-14T04:42:47.307Z,19.57
2022-08-14T04:45:20.745Z,19.57
2022-08-14T04:48:05.915Z,19.63
2022-08-14T04:50:45.157Z,19.64
2022-08-14T04:53:34.635Z,19.64
2022-08-14T04:56:06.194Z,19.69
2022-08-14T04:58:37.752Z,19.70
2022-08-14T05:01:12.883Z,19.74
2022-08-14T05:03:45.962Z,19.78
2022-08-14T05:06:37.945Z,19.84
2022-08-14T05:09:00.321Z,19.90
2022-08-14T05:11:27.618Z,19.95
2022-08-14T05:14:16.853Z,20.04
2022-08-14T05:16:42.521Z,20.18
2022-08-14T05:19:17.580Z,20.31
2022-08-14T05:22:00.353Z,20.48
2022-08-14T05:24:36.005Z,20.66
2022-08-14T05:27:03.933Z,20.81
2022-08-14T05:29:31.159Z,21.00
2022-08-14T05:32:01.009Z,21.17
2022-08-14T05:34:32.068Z,21.35
2022-08-14T05:37:02.388Z,21.51
2022-08-14T05:39:30.342Z,21.65
2022-08-14T05:41:58.165Z,21.79
2022-08-14T05:44:29.177Z,21.92
2022-08-14T05:46:56.759Z,22.09
2022-08-14T05:49:23.171Z,22.65
2022-08-14T05:51:52.657Z,23.98
2022-08-14T05:54:26.671Z,25.19
2022-08-14T05:56:54.234Z,26.12
2022-08-14T05:59:36.413Z,26.88
2022-08-14T06:02:05.816Z,27.41
2022-08-14T06:04:32.490Z,28.02
2022-08-14T06:06:59.214Z,28.58
2022-08-14T06:09:25.650Z,28.67
2022-08-14T06:11:52.321Z,28.99
2022-08-14T06:14:21.379Z,29.37
2022-08-14T06:16:51.973Z,29.91
2022-08-14T06:19:19.999Z,30.21
2022-08-14T06:21:46.462Z,30.58
2022-08-14T06:24:18.841Z,30.62
2022-08-14T06:26:54.354Z,30.80
2022-08-14T06:29:32.045Z,31.09
2022-08-14T06:32:36.786Z,31.47
2022-08-14T06:35:02.442Z,31.64
2022-08-14T06:37:50.380Z,31.96
2022-08-14T06:40:50.001Z,31.77
2022-08-14T06:43:19.255Z,31.99
2022-08-14T06:45:50.408Z,32.39
2022-08-14T06:48:23.717Z,32.79
2022-08-14T06:50:51.455Z,33.10
2022-08-14T06:53:19.663Z,32.77
2022-08-14T06:56:00.851Z,32.33
2022-08-14T06:58:31.305Z,32.35
2022-08-14T07:01:23.042Z,32.98
2022-08-14T07:04:23.197Z,33.63
2022-08-14T07:06:54.779Z,33.37
2022-08-14T07:09:24.899Z,33.45
2022-08-14T07:11:54.159Z,33.55
2022-08-14T07:14:20.622Z,33.55
2022-08-14T07:16:47.464Z,33.85
2022-08-14T07:19:17.632Z,33.93
2022-08-14T07:21:47.795Z,34.28
2022-08-14T07:24:21.882Z,34.27
2022-08-14T07:26:48.772Z,34.48
2022-08-14T07:29:15.206Z,34.40
2022-08-14T07:31:44.207Z,34.43
2022-08-14T07:34:11.350Z,34.30
2022-08-14T07:36:37.919Z,34.72
2022-08-14T07:39:20.201Z,34.91
2022-08-14T07:41:54.269Z,34.63
2022-08-14T07:44:32.026Z,34.57
2022-08-14T07:47:03.630Z,34.98
2022-08-14T07:49:32.451Z,34.84
2022-08-14T07:51:59.921Z,35.12
2022-08-14T07:54:30.005Z,34.78
2022-08-14T07:56:59.738Z,34.83
2022-08-14T07:59:42.216Z,34.81
2022-08-14T08:02:17.112Z,34.84
2022-08-14T08:04:49.370Z,34.81
2022-08-14T08:07:16.711Z,35.01
2022-08-14T08:09:53.443Z,35.06
2022-08-14T08:12:24.960Z,35.19
2022-08-14T08:15:05.597Z,35.19
2022-08-14T08:17:38.567Z,35.26
2022-08-14T08:20:09.251Z,35.52
2022-08-14T08:22:38.477Z,35.94
2022-08-14T08:25:13.987Z,35.72
2022-08-14T08:27:56.354Z,36.35
2022-08-14T08:30:23.201Z,35.90
2022-08-14T08:32:52.400Z,36.04
2022-08-14T08:35:23.641Z,35.90
2022-08-14T08:38:01.270Z,36.07
2022-08-14T08:40:36.228Z,36.43
2022-08-14T08:43:20.959Z,37.16
2022-08-14T08:46:03.123Z,37.97
2022-08-14T08:48:50.135Z,39.03
2022-08-14T08:51:31.255Z,39.38
2022-08-14T08:54:05.543Z,39.81
2022-08-14T08:56:46.635Z,39.47
2022-08-14T08:59:27.390Z,39.28
2022-08-14T09:01:59.755Z,39.69
2022-08-14T09:04:33.994Z,39.82
2022-08-14T09:07:10.274Z,40.13
2022-08-14T09:09:54.522Z,39.95
2022-08-14T09:12:32.619Z,39.77
2022-08-14T09:15:12.644Z,40.43
2022-08-14T09:17:43.149Z,40.63
2022-08-14T09:20:12.376Z,40.23
2022-08-14T09:22:48.386Z,39.47
2022-08-14T09:25:16.132Z,38.60
2022-08-14T09:27:42.743Z,38.73
2022-08-14T09:30:31.725Z,38.65
2022-08-14T09:33:09.097Z,38.62
2022-08-14T09:36:07.872Z,39.19
2022-08-14T09:38:54.456Z,39.17
2022-08-14T09:42:20.188Z,39.03
2022-08-14T09:45:16.694Z,38.97
2022-08-14T09:47:51.910Z,38.95
2022-08-14T09:50:21.941Z,38.95
2022-08-14T09:52:54.881Z,39.36
2022-08-14T09:55:23.960Z,39.04
2022-08-14T09:57:52.848Z,39.00
2022-08-14T10:00:42.135Z,39.94
2022-08-14T10:03:09.458Z,40.13
2022-08-14T10:05:39.364Z,40.02
2022-08-14T10:08:25.553Z,40.50
2022-08-14T10:10:57.121Z,40.76
2022-08-14T10:13:29.324Z,41.25
2022-08-14T10:16:21.682Z,41.71
2022-08-14T10:19:10.962Z,41.65
2022-08-14T10:23:13.549Z,41.56
2022-08-14T10:24:36.757Z,41.08
2022-08-14T10:27:04.429Z,41.65
2022-08-14T10:29:38.773Z,41.42
2022-08-14T10:32:18.285Z,40.97
2022-08-14T10:35:13.519Z,41.64
2022-08-14T10:37:49.890Z,41.83
2022-08-14T10:40:43.351Z,41.18
2022-08-14T10:43:25.520Z,40.19
2022-08-14T10:46:04.111Z,39.06
2022-08-14T10:49:02.768Z,38.58
2022-08-14T10:51:34.197Z,38.73
2022-08-14T10:54:17.114Z,39.17
2022-08-14T10:56:57.258Z,39.64
2022-08-14T10:59:31.354Z,40.23
2022-08-14T11:02:17.559Z,40.79
2022-08-14T11:04:44.208Z,41.11
2022-08-14T11:07:16.868Z,41.66
2022-08-14T11:09:58.230Z,42.16
2022-08-14T11:12:34.188Z,42.33
2022-08-14T11:15:07.536Z,42.19
2022-08-14T11:17:37.435Z,40.32
2022-08-14T11:20:14.047Z,42.19
2022-08-14T11:22:55.865Z,42.00
2022-08-14T11:25:36.859Z,41.99
2022-08-14T11:28:14.856Z,42.37
2022-08-14T11:30:54.405Z,42.68
2022-08-14T11:33:30.953Z,43.02
2022-08-14T11:36:01.746Z,43.23
2022-08-14T11:38:35.582Z,42.86
2022-08-14T11:41:06.078Z,42.36
2022-08-14T11:43:49.446Z,42.43
2022-08-14T11:46:30.304Z,41.99
2022-08-14T11:49:05.506Z,42.39
2022-08-14T11:51:50.917Z,42.84
2022-08-14T11:54:19.442Z,42.86
2022-08-14T11:56:49.753Z,43.21
2022-08-14T11:59:18.877Z,43.35
2022-08-14T12:01:48.831Z,43.57
2022-08-14T12:04:32.467Z,43.63
2022-08-14T12:07:01.185Z,43.82
2022-08-14T12:09:29.878Z,42.85
2022-08-14T12:11:56.446Z,41.39
2022-08-14T12:14:29.785Z,40.67
2022-08-14T12:17:05.022Z,39.92
2022-08-14T12:19:33.769Z,40.79
2022-08-14T12:22:02.184Z,40.45
2022-08-14T12:24:35.623Z,40.98
2022-08-14T12:27:03.714Z,39.64
2022-08-14T12:29:32.015Z,40.12
2022-08-14T12:32:00.863Z,40.88
2022-08-14T12:34:32.191Z,41.38
2022-08-14T12:37:11.840Z,41.66
2022-08-14T12:39:39.920Z,41.20
2022-08-14T12:42:07.401Z,41.23
2022-08-14T12:44:37.369Z,41.54
2022-08-14T12:47:15.131Z,41.52
2022-08-14T12:49:52.893Z,41.56
2022-08-14T12:53:06.405Z,41.45
2022-08-14T12:56:17.660Z,41.89
2022-08-14T12:58:36.446Z,41.66
2022-08-14T13:01:27.332Z,41.81
2022-08-14T13:04:13.010Z,41.37
2022-08-14T13:06:44.067Z,41.30
2022-08-14T13:09:13.295Z,41.03
2022-08-14T13:11:44.951Z,40.67
2022-08-14T13:14:18.515Z,40.57
2022-08-14T13:16:50.414Z,40.71
2022-08-14T13:19:18.378Z,41.14
2022-08-14T13:22:05.031Z,41.25
2022-08-14T13:24:38.793Z,39.81
2022-08-14T13:27:06.358Z,38.65
2022-08-14T13:29:43.861Z,38.87
2022-08-14T13:32:14.201Z,38.82
2022-08-14T13:34:43.609Z,38.55
2022-08-14T13:37:14.580Z,37.57
2022-08-14T13:39:56.833Z,37.94
2022-08-14T13:42:27.714Z,38.08
2022-08-14T13:44:59.827Z,37.92
2022-08-14T13:47:29.822Z,37.78
2022-08-14T13:50:02.547Z,37.82
2022-08-14T13:52:52.056Z,37.90
2022-08-14T13:55:22.858Z,38.02
2022-08-14T13:58:03.518Z,37.76
2022-08-14T14:00:35.737Z,37.23
2022-08-14T14:03:19.549Z,36.45
2022-08-14T14:05:52.219Z,36.07
2022-08-14T14:08:47.598Z,35.87
2022-08-14T14:11:08.116Z,35.16
2022-08-14T14:13:36.054Z,35.65
2022-08-14T14:16:05.363Z,35.83
2022-08-14T14:18:35.266Z,35.92
2022-08-14T14:21:02.944Z,35.97
2022-08-14T14:23:31.099Z,35.90
2022-08-14T14:25:59.130Z,35.93
2022-08-14T14:28:31.469Z,36.13
2022-08-14T14:31:01.202Z,35.84
2022-08-14T14:33:47.491Z,35.62
2022-08-14T14:36:20.852Z,35.55
2022-08-14T14:38:55.993Z,35.34
2022-08-14T14:41:24.334Z,35.31
2022-08-14T14:43:52.111Z,34.91
2022-08-14T14:46:36.087Z,34.48
2022-08-14T14:49:05.912Z,34.32
2022-08-14T14:51:34.349Z,34.48
2022-08-14T14:54:02.174Z,34.32
2022-08-14T14:56:50.917Z,34.46
2022-08-14T14:59:17.783Z,34.61
2022-08-14T15:01:49.229Z,34.64
2022-08-14T15:04:19.986Z,34.77
2022-08-14T15:06:48.239Z,34.68
2022-08-14T15:09:18.088Z,34.60
2022-08-14T15:11:45.908Z,34.56
2022-08-14T15:14:54.858Z,34.50
2022-08-14T15:17:01.097Z,34.28
2022-08-14T15:19:27.538Z,34.10
2022-08-14T15:21:55.342Z,33.73
2022-08-14T15:24:26.621Z,33.34
2022-08-14T15:26:53.807Z,33.10
2022-08-14T15:29:20.447Z,33.10
2022-08-14T15:31:46.846Z,33.21
2022-08-14T15:34:44.089Z,33.41
2022-08-14T15:37:02.254Z,33.57
2022-08-14T15:39:33.656Z,33.38
2022-08-14T15:42:02.731Z,33.31
2022-08-14T15:44:34.259Z,33.00
2022-08-14T15:47:01.880Z,32.83
2022-08-14T15:49:34.844Z,32.61
2022-08-14T15:52:04.087Z,32.29
2022-08-14T15:54:32.361Z,32.08
2022-08-14T15:57:01.352Z,32.09
2022-08-14T15:59:49.572Z,32.13
2022-08-14T16:02:16.216Z,32.19
2022-08-14T16:04:45.793Z,32.26
2022-08-14T16:07:17.985Z,32.44
2022-08-14T16:09:48.364Z,32.52
2022-08-14T16:12:19.230Z,32.55
2022-08-14T16:14:51.316Z,32.66
2022-08-14T16:17:20.029Z,32.60
2022-08-14T16:19:47.518Z,32.50
2022-08-14T16:23:10.618Z,32.41
2022-08-14T16:25:03.422Z,32.26
2022-08-14T16:27:37.877Z,32.11
2022-08-14T16:30:10.808Z,31.99
2022-08-14T16:32:55.036Z,31.85
2022-08-14T16:35:24.965Z,31.71
2022-08-14T16:37:53.137Z,31.68
2022-08-14T16:43:04.658Z,31.33
2022-08-14T16:45:43.813Z,31.27
2022-08-14T16:48:57.918Z,31.21
2022-08-14T16:50:58.972Z,31.11
2022-08-14T16:53:27.271Z,30.97
2022-08-14T16:56:23.086Z,30.99
2022-08-14T16:59:02.683Z,30.87
2022-08-14T17:01:31.693Z,30.73
2022-08-14T17:04:09.758Z,30.58
2022-08-14T17:06:56.186Z,30.38
2022-08-14T17:09:25.338Z,30.20
2022-08-14T17:12:07.679Z,29.97
2022-08-14T17:15:03.860Z,29.81
2022-08-14T17:17:40.015Z,29.66
2022-08-14T17:20:39.351Z,29.52
2022-08-14T17:23:10.881Z,29.39
2022-08-14T17:25:38.027Z,29.26
2022-08-14T17:28:50.449Z,29.11
2022-08-14T17:31:10.178Z,28.92
2022-08-14T17:33:44.405Z,28.82
2022-08-14T17:36:22.508Z,28.68
2022-08-14T17:39:17.409Z,28.51
2022-08-14T17:42:01.722Z,28.40
2022-08-14T17:44:45.214Z,28.28
2022-08-14T17:47:14.582Z,28.14
2022-08-14T17:49:51.500Z,28.03
2022-08-14T17:52:34.532Z,27.95
2022-08-14T17:55:07.672Z,27.73
2022-08-14T17:57:35.176Z,27.54
2022-08-14T18:00:11.202Z,27.34
2022-08-14T18:02:39.335Z,27.15
2022-08-14T18:05:08.367Z,27.00
2022-08-14T18:08:31.621Z,26.83
2022-08-14T18:10:52.519Z,26.64
2022-08-14T18:13:11.015Z,26.47
2022-08-14T18:15:41.339Z,26.35
2022-08-14T18:18:11.224Z,26.19
2022-08-14T18:21:39.689Z,26.02
2022-08-14T18:23:26.712Z,25.85
2022-08-14T18:25:56.849Z,25.70
2022-08-14T18:28:48.578Z,25.58
2022-08-14T18:31:20.124Z,25.54
2022-08-14T18:34:06.484Z,25.48
2022-08-14T18:36:47.765Z,25.43
2022-08-14T18:39:34.577Z,25.51
2022-08-14T18:42:23.646Z,25.94
2022-08-14T18:44:50.777Z,26.09
2022-08-14T18:47:20.197Z,26.06
2022-08-14T18:50:27.300Z,26.04
2022-08-14T18:52:53.160Z,25.96
2022-08-14T18:55:20.958Z,25.94
2022-08-14T18:58:27.548Z,25.99
2022-08-14T19:00:56.047Z,26.08
2022-08-14T19:03:36.457Z,26.11
2022-08-14T19:06:09.485Z,26.08
2022-08-14T19:08:45.381Z,26.04
2022-08-14T19:11:39.689Z,26.43
2022-08-14T19:14:07.861Z,26.56
2022-08-14T19:16:35.256Z,26.73
2022-08-14T19:19:06.764Z,26.79
2022-08-14T19:21:55.223Z,26.72
2022-08-14T19:24:34.065Z,26.61
2022-08-14T19:27:23.744Z,26.55
2022-08-14T19:30:09.925Z,26.64
2022-08-14T19:32:50.592Z,26.73
2022-08-14T19:35:19.581Z,26.63
2022-08-14T19:37:54.933Z,26.56
2022-08-14T19:40:41.931Z,26.45
2022-08-14T19:43:10.508Z,26.37
2022-08-14T19:45:38.907Z,26.35
2022-08-14T19:48:12.704Z,26.31
2022-08-14T19:50:41.227Z,26.28
2022-08-14T19:53:17.618Z,26.18
2022-08-14T19:55:57.184Z,26.06
2022-08-14T19:58:38.996Z,25.98
2022-08-14T20:01:37.351Z,25.91
2022-08-14T20:04:07.384Z,25.84
2022-08-14T20:06:46.449Z,25.75
2022-08-14T20:11:07.842Z,25.65
2022-08-14T20:12:04.530Z,25.58
2022-08-14T20:14:36.509Z,25.48
2022-08-14T20:17:06.933Z,25.46
2022-08-14T20:19:37.655Z,25.40
2022-08-14T20:22:36.426Z,25.33
2022-08-14T20:24:55.079Z,25.24
2022-08-14T20:27:39.519Z,25.19
2022-08-14T20:30:35.057Z,25.10
2022-08-14T20:33:07.303Z,24.97
2022-08-14T20:35:44.242Z,24.79
2022-08-14T20:38:29.888Z,24.68
2022-08-14T20:41:06.698Z,24.58
2022-08-14T20:43:57.460Z,24.47
2022-08-14T20:46:31.101Z,24.39
2022-08-14T20:49:06.539Z,24.31
2022-08-14T20:51:47.346Z,24.29
2022-08-14T20:54:21.807Z,24.22
2022-08-14T20:57:17.815Z,24.16
2022-08-14T20:59:50.215Z,24.08
2022-08-14T21:02:30.434Z,24.03
2022-08-14T21:05:16.702Z,23.97
2022-08-14T21:07:44.469Z,23.96
2022-08-14T21:10:35.791Z,23.93
2022-08-14T21:13:26.275Z,23.88
2022-08-14T21:15:56.684Z,23.84
2022-08-14T21:18:24.910Z,23.84
2022-08-14T21:20:55.744Z,23.87
2022-08-14T21:23:23.081Z,23.86
2022-08-14T21:25:49.509Z,23.86
2022-08-14T21:28:29.722Z,23.83
2022-08-14T21:30:56.932Z,23.81
2022-08-14T21:33:23.546Z,23.79
2022-08-14T21:35:54.965Z,23.77
2022-08-14T21:38:34.287Z,23.74
2022-08-14T21:41:43.066Z,23.71
2022-08-14T21:44:03.840Z,23.69
2022-08-14T21:46:30.350Z,23.66
2022-08-14T21:48:58.563Z,23.62
2022-08-14T21:51:53.896Z,23.56
2022-08-14T21:54:32.286Z,23.50
2022-08-14T21:57:02.251Z,23.46
2022-08-14T21:59:32.179Z,23.39
2022-08-14T22:02:03.929Z,23.32
2022-08-14T22:04:40.795Z,23.29
2022-08-14T22:07:12.227Z,23.20
2022-08-14T22:09:42.788Z,23.15
2022-08-14T22:12:10.846Z,23.08
2022-08-14T22:14:57.225Z,23.01
2022-08-14T22:17:24.175Z,22.97
2022-08-14T22:19:54.855Z,22.91
2022-08-14T22:22:23.983Z,22.87
2022-08-14T22:24:53.838Z,22.83
2022-08-14T22:27:21.222Z,22.78
2022-08-14T22:29:54.828Z,22.75
2022-08-14T22:32:35.014Z,22.67
2022-08-14T22:35:02.612Z,22.61
2022-08-14T22:37:29.023Z,22.56
2022-08-14T22:40:46.171Z,22.48
2022-08-14T22:42:42.209Z,22.43
2022-08-14T22:45:26.659Z,22.32
2022-08-14T22:48:03.511Z,22.26
2022-08-14T22:50:33.635Z,22.19
2022-08-14T22:53:00.681Z,22.10
2022-08-14T22:55:27.361Z,22.02
2022-08-14T22:57:53.793Z,21.96
2022-08-14T23:00:25.318Z,21.86
2022-08-14T23:02:59.955Z,21.82
2022-08-14T23:05:39.871Z,21.77
2022-08-14T23:08:59.071Z,21.69
2022-08-14T23:10:58.118Z,21.62
2022-08-14T23:13:24.592Z,21.57
2022-08-14T23:15:50.995Z,21.54
2022-08-14T23:18:17.460Z,21.48
2022-08-14T23:20:48.756Z,21.44
2022-08-14T23:23:22.561Z,21.44
2022-08-14T23:26:00.606Z,21.42
2022-08-14T23:28:56.973Z,21.42
2022-08-14T23:31:35.534Z,21.38
2022-08-14T23:34:06.561Z,21.40
2022-08-14T23:36:37.311Z,21.31
2022-08-14T23:39:07.134Z,21.30
2022-08-14T23:41:45.721Z,21.27
2022-08-14T23:44:20.465Z,21.23
2022-08-14T23:46:49.354Z,21.26
2022-08-14T23:49:20.475Z,21.23
2022-08-14T23:52:51.638Z,21.20
2022-08-14T23:54:48.816Z,21.15
2022-08-14T23:57:19.290Z,21.12
2022-08-14T23:59:54.823Z,21.07
